Time;durP1;ratioP1;P1;durP2;ratioP2;P2;SDS_P1;SDS_P2;PMS_P1;PMS_P2;Temp;Humidity;BMP_temperature;BMP_pressure;BME280_temperature;BME280_humidity;BME280_pressure;Samples;Min_cycle;Max_cycle;Signal;HPM_P1;HPM_P2
2022/10/26 00:01:18;;;;;;;6.65;2.22;;;15.20;99.90;;;;;;5079476;28;20426;-67
2022/10/26 00:03:44;;;;;;;6.63;2.35;;;15.30;99.90;;;;;;5078367;28;20377;-67
2022/10/26 00:06:12;;;;;;;4.07;2.20;;;15.20;99.90;;;;;;5078301;28;20060;-68
2022/10/26 00:08:38;;;;;;;4.80;1.70;;;15.30;99.90;;;;;;5077494;28;20115;-67
2022/10/26 00:11:05;;;;;;;6.27;2.07;;;15.40;99.90;;;;;;5078382;28;20044;-66
2022/10/26 00:13:31;;;;;;;8.55;2.40;;;15.40;99.90;;;;;;5079214;28;20266;-69
2022/10/26 00:15:57;;;;;;;7.53;1.90;;;15.30;99.90;;;;;;5077581;28;20096;-67
2022/10/26 00:18:23;;;;;;;6.25;2.15;;;15.10;99.90;;;;;;5074900;28;20025;-67
2022/10/26 00:20:49;;;;;;;5.78;2.40;;;15.00;99.90;;;;;;5074491;28;20497;-68
2022/10/26 00:23:15;;;;;;;5.15;2.10;;;15.00;99.90;;;;;;5072766;28;20516;-68
2022/10/26 00:25:40;;;;;;;3.83;1.80;;;15.00;99.90;;;;;;5074344;28;20032;-68
2022/10/26 00:28:06;;;;;;;6.83;2.03;;;15.10;99.90;;;;;;5074831;28;20317;-68
2022/10/26 00:30:31;;;;;;;5.93;2.40;;;15.20;99.90;;;;;;5074149;28;20037;-68
2022/10/26 00:32:57;;;;;;;7.27;2.47;;;15.00;99.90;;;;;;5072947;28;20028;-68
2022/10/26 00:35:22;;;;;;;4.93;2.27;;;14.90;99.90;;;;;;5073942;28;20087;-68
2022/10/26 00:37:48;;;;;;;6.87;2.10;;;14.90;99.90;;;;;;5072857;28;20066;-68
2022/10/26 00:40:13;;;;;;;5.43;1.97;;;14.80;99.90;;;;;;5073373;28;20032;-68
2022/10/26 00:42:39;;;;;;;4.33;2.13;;;14.70;99.90;;;;;;5073982;28;20040;-67
2022/10/26 00:45:18;;;;;;;4.57;2.63;;;14.60;99.90;;;;;;5072788;28;20274;-68
2022/10/26 00:48:00;;;;;;;8.10;2.72;;;14.60;99.90;;;;;;5072758;28;20033;-68
2022/10/26 00:50:33;;;;;;;8.50;2.50;;;14.60;99.90;;;;;;5074207;28;20020;-68
2022/10/26 00:53:02;;;;;;;5.43;2.13;;;14.60;99.90;;;;;;5074225;28;20024;-68
2022/10/26 00:55:32;;;;;;;7.95;3.17;;;14.70;99.90;;;;;;5073260;28;20029;-68
2022/10/26 00:58:01;;;;;;;5.90;2.13;;;14.70;99.90;;;;;;5072458;28;20108;-68
2022/10/26 01:00:26;;;;;;;6.53;2.35;;;14.70;99.90;;;;;;5073688;28;20050;-68
2022/10/26 01:02:56;;;;;;;7.13;2.05;;;14.70;99.90;;;;;;5072618;28;20016;-68
2022/10/26 01:05:22;;;;;;;6.30;2.30;;;14.70;99.90;;;;;;5073536;28;20078;-68
2022/10/26 01:07:49;;;;;;;4.97;2.00;;;14.60;99.90;;;;;;5073666;28;20497;-67
2022/10/26 01:10:15;;;;;;;4.93;2.10;;;14.60;99.90;;;;;;5073608;28;20477;-67
2022/10/26 01:12:41;;;;;;;8.70;2.50;;;14.80;99.90;;;;;;5072537;28;20051;-68
2022/10/26 01:15:07;;;;;;;5.20;2.13;;;14.80;99.90;;;;;;5073792;28;20468;-68
2022/10/26 01:17:40;;;;;;;;;;;14.90;99.90;;;;;;5074995;28;20390;-68
2022/10/26 01:20:09;;;;;;;5.65;2.30;;;14.70;99.90;;;;;;5073203;28;19904;-68
2022/10/26 01:23:13;;;;;;;6.25;1.65;;;14.60;99.90;;;;;;5072760;28;20492;-68
2022/10/26 01:26:03;;;;;;;8.15;2.22;;;14.70;99.90;;;;;;5074354;28;20121;-68
2022/10/26 01:28:47;;;;;;;4.57;1.63;;;14.80;99.90;;;;;;5073527;28;20029;-68
2022/10/26 01:31:22;;;;;;;6.65;2.08;;;14.80;99.90;;;;;;5073495;28;20024;-68
2022/10/26 01:34:00;;;;;;;11.60;1.98;;;14.90;99.90;;;;;;5074500;28;20044;-68
2022/10/26 01:36:38;;;;;;;7.38;2.20;;;15.00;99.90;;;;;;5073888;28;20482;-68
2022/10/26 01:39:28;;;;;;;7.70;2.42;;;14.80;99.90;;;;;;5071879;28;20032;-68
2022/10/26 01:42:00;;;;;;;9.00;2.10;;;14.70;99.90;;;;;;5072495;28;20024;-68
2022/10/26 01:44:28;;;;;;;4.60;2.10;;;14.60;99.90;;;;;;5074133;28;20078;-68
2022/10/26 01:46:57;;;;;;;8.02;2.20;;;14.60;99.90;;;;;;5074418;28;20047;-68
2022/10/26 01:49:26;;;;;;;6.07;1.80;;;14.70;99.90;;;;;;5072416;28;20024;-68
2022/10/26 01:51:52;;;;;;;6.97;1.90;;;14.90;99.90;;;;;;5076744;28;20077;-68
2022/10/26 01:54:17;;;;;;;10.30;2.03;;;14.90;99.90;;;;;;5078136;28;20033;-68
2022/10/26 01:56:54;;;;;;;7.80;2.63;;;14.90;99.90;;;;;;5078430;28;20478;-68
2022/10/26 01:59:35;;;;;;;4.30;2.22;;;14.80;99.90;;;;;;5078340;28;20029;-68
2022/10/26 02:02:08;;;;;;;11.13;3.00;;;14.70;99.90;;;;;;5077713;28;20020;-69
2022/10/26 02:04:53;;;;;;;6.03;1.95;;;14.70;99.90;;;;;;5077421;28;20115;-69
2022/10/26 02:07:44;;;;;;;8.35;2.40;;;14.70;99.90;;;;;;5077479;28;20111;-68
2022/10/26 02:10:29;;;;;;;6.20;2.63;;;14.90;99.90;;;;;;5076892;28;20091;-68
2022/10/26 02:13:01;;;;;;;5.80;2.15;;;14.80;99.90;;;;;;5092541;28;20024;-68
2022/10/26 02:15:37;;;;;;;6.25;2.13;;;14.80;99.90;;;;;;5097396;28;20380;-68
2022/10/26 02:18:06;;;;;;;7.28;2.67;;;14.60;99.90;;;;;;5097597;28;20095;-68
2022/10/26 02:20:38;;;;;;;4.82;2.30;;;14.60;99.90;;;;;;5095815;28;20031;-68
2022/10/26 02:23:06;;;;;;;8.10;2.53;;;14.60;99.90;;;;;;5095556;28;20031;-68
2022/10/26 02:25:38;;;;;;;7.90;2.50;;;14.60;99.90;;;;;;5097042;28;20032;-68
2022/10/26 02:28:10;;;;;;;9.52;2.80;;;14.50;99.90;;;;;;5095839;28;20063;-68
2022/10/26 02:30:37;;;;;;;5.18;2.70;;;14.60;99.90;;;;;;5096798;28;20026;-68
2022/10/26 02:33:05;;;;;;;5.97;2.88;;;14.50;99.90;;;;;;5100292;28;20049;-68
2022/10/26 02:35:35;;;;;;;6.45;2.63;;;14.60;99.90;;;;;;5097670;28;20031;-67
2022/10/26 02:38:05;;;;;;;7.65;2.97;;;14.60;99.90;;;;;;5097135;28;20039;-67
2022/10/26 02:40:32;;;;;;;9.60;2.50;;;14.60;99.90;;;;;;5097091;28;20020;-68
2022/10/26 02:43:04;;;;;;;10.43;3.28;;;14.50;99.90;;;;;;5080530;28;20027;-68
2022/10/26 02:45:37;;;;;;;7.13;3.25;;;14.40;99.90;;;;;;5076908;28;20056;-68
2022/10/26 02:48:02;;;;;;;8.98;3.03;;;14.50;99.90;;;;;;5076445;28;20040;-68
2022/10/26 02:51:01;;;;;;;8.57;3.63;;;14.40;99.90;;;;;;5076681;28;20150;-68
2022/10/26 02:53:34;;;;;;;7.90;3.40;;;14.30;99.90;;;;;;5074649;28;20083;-68
2022/10/26 02:56:07;;;;;;;8.70;3.63;;;14.30;99.90;;;;;;5076259;28;20020;-68
2022/10/26 02:58:36;;;;;;;9.60;3.97;;;14.20;99.90;;;;;;5076039;28;20195;-68
2022/10/26 03:01:03;;;;;;;8.13;3.50;;;14.10;99.90;;;;;;5076076;28;20017;-68
2022/10/26 03:03:28;;;;;;;7.85;3.92;;;14.10;99.90;;;;;;5075655;28;20073;-68
2022/10/26 03:05:54;;;;;;;7.53;3.70;;;14.20;99.90;;;;;;5077041;28;20028;-68
2022/10/26 03:08:19;;;;;;;7.93;3.23;;;14.20;99.90;;;;;;5076504;28;20262;-68
2022/10/26 03:10:45;;;;;;;7.50;3.87;;;14.00;99.90;;;;;;5076840;28;20040;-68
2022/10/26 03:13:12;;;;;;;10.05;4.13;;;14.00;99.90;;;;;;5076297;28;20036;-68
2022/10/26 03:15:38;;;;;;;8.63;3.13;;;14.00;99.90;;;;;;5076843;28;20048;-68
2022/10/26 03:18:04;;;;;;;12.73;4.32;;;14.00;99.90;;;;;;5076694;28;20495;-68
2022/10/26 03:20:30;;;;;;;11.48;3.63;;;13.90;99.90;;;;;;5076061;28;20060;-68
2022/10/26 03:22:56;;;;;;;12.23;3.25;;;13.80;99.90;;;;;;5075660;28;20028;-68
2022/10/26 03:25:22;;;;;;;10.03;3.70;;;13.80;99.90;;;;;;5076633;28;20028;-68
2022/10/26 03:27:56;;;;;;;8.95;3.10;;;13.80;99.90;;;;;;5077315;28;20028;-68
2022/10/26 03:30:21;;;;;;;10.85;3.38;;;13.70;99.90;;;;;;5076155;28;20017;-68
2022/10/26 03:32:47;;;;;;;9.33;3.10;;;13.70;99.90;;;;;;5075538;28;20041;-68
2022/10/26 03:35:12;;;;;;;8.80;3.10;;;13.80;99.90;;;;;;5074414;28;20075;-68
2022/10/26 03:37:38;;;;;;;15.77;3.37;;;13.80;99.90;;;;;;5075638;28;20406;-68
2022/10/26 03:40:04;;;;;;;11.53;4.07;;;13.70;99.90;;;;;;5074912;28;20255;-68
2022/10/26 03:42:34;;;;;;;6.05;3.00;;;13.70;99.90;;;;;;5073957;28;20021;-68
2022/10/26 03:45:00;;;;;;;7.22;3.13;;;13.80;99.90;;;;;;5075154;28;20059;-68
2022/10/26 03:47:26;;;;;;;9.75;3.25;;;13.80;99.90;;;;;;5075164;28;20025;-68
2022/10/26 03:49:51;;;;;;;8.87;2.90;;;13.70;99.90;;;;;;5074994;28;20115;-68
2022/10/26 03:52:17;;;;;;;8.07;3.03;;;13.80;99.90;;;;;;5075456;28;20036;-68
2022/10/26 03:54:42;;;;;;;9.17;3.17;;;13.90;99.90;;;;;;5074703;28;20031;-68
2022/10/26 03:57:07;;;;;;;10.00;3.30;;;13.90;99.90;;;;;;5074873;28;20526;-68
2022/10/26 03:59:33;;;;;;;8.93;3.17;;;13.90;99.90;;;;;;5074975;28;20020;-68
2022/10/26 04:01:58;;;;;;;8.90;3.13;;;13.80;99.90;;;;;;5075135;28;20021;-68
2022/10/26 04:04:24;;;;;;;5.50;2.30;;;13.70;99.90;;;;;;5075139;28;20039;-69
2022/10/26 04:06:50;;;;;;;8.93;2.90;;;13.70;99.90;;;;;;5075920;28;20051;-68
2022/10/26 04:09:15;;;;;;;8.03;2.77;;;13.70;99.90;;;;;;5074694;28;20028;-69
2022/10/26 04:11:41;;;;;;;8.50;3.07;;;13.80;99.90;;;;;;5075179;28;20037;-69
2022/10/26 04:14:06;;;;;;;9.93;2.90;;;13.70;99.90;;;;;;5073701;28;20029;-68
2022/10/26 04:16:32;;;;;;;5.13;3.03;;;13.70;99.90;;;;;;5073249;28;20444;-67
2022/10/26 04:19:00;;;;;;;7.23;2.87;;;13.70;99.90;;;;;;5074950;28;20032;-70
2022/10/26 04:21:26;;;;;;;7.38;3.70;;;13.70;99.90;;;;;;5074394;28;20021;-67
2022/10/26 04:23:51;;;;;;;9.50;3.07;;;13.80;99.90;;;;;;5074154;28;20507;-68
2022/10/26 04:26:17;;;;;;;6.33;3.40;;;13.70;99.90;;;;;;5074372;28;20464;-68
2022/10/26 04:28:42;;;;;;;8.17;3.40;;;13.70;99.90;;;;;;5074435;28;20025;-68
2022/10/26 04:31:08;;;;;;;7.53;2.80;;;13.60;99.90;;;;;;5074355;28;20020;-68
2022/10/26 04:33:33;;;;;;;7.60;2.63;;;13.80;99.90;;;;;;5074301;28;20059;-68
2022/10/26 04:36:02;;;;;;;10.97;3.53;;;13.90;99.90;;;;;;5073939;28;20490;-68
2022/10/26 04:38:28;;;;;;;6.18;2.97;;;14.10;99.90;;;;;;5073816;28;20052;-68
2022/10/26 04:40:53;;;;;;;7.33;2.57;;;14.10;99.90;;;;;;5074087;28;20016;-68
2022/10/26 04:43:19;;;;;;;9.97;2.90;;;14.10;99.90;;;;;;5074259;28;20624;-68
2022/10/26 04:45:44;;;;;;;12.37;2.97;;;14.00;99.90;;;;;;5074600;28;20056;-68
2022/10/26 04:48:12;;;;;;;9.53;2.77;;;14.00;99.90;;;;;;5074700;28;20032;-68
2022/10/26 04:50:38;;;;;;;9.32;3.08;;;14.00;99.90;;;;;;5074301;28;20481;-68
2022/10/26 04:53:08;;;;;;;8.40;3.50;;;14.20;99.90;;;;;;5074045;28;20043;-68
2022/10/26 04:55:34;;;;;;;5.03;2.70;;;14.30;99.90;;;;;;5072677;28;20032;-68
2022/10/26 04:58:00;;;;;;;8.18;3.17;;;14.30;99.90;;;;;;5073953;28;20575;-68
2022/10/26 05:00:26;;;;;;;18.40;4.43;;;14.20;99.90;;;;;;5074513;28;20035;-68
2022/10/26 05:02:57;;;;;;;8.40;2.95;;;14.30;99.90;;;;;;5074567;28;20259;-69
2022/10/26 05:05:22;;;;;;;7.50;2.83;;;14.20;99.90;;;;;;5074919;28;20032;-68
2022/10/26 05:07:54;;;;;;;7.80;2.97;;;14.20;99.90;;;;;;5076713;28;20115;-68
2022/10/26 05:10:20;;;;;;;11.38;3.08;;;14.20;99.90;;;;;;5074410;28;20060;-68
2022/10/26 05:12:50;;;;;;;10.67;3.30;;;14.20;99.90;;;;;;5072465;28;20031;-68
2022/10/26 05:15:16;;;;;;;7.50;3.30;;;14.20;99.90;;;;;;5074240;28;20020;-68
2022/10/26 05:17:41;;;;;;;10.97;3.60;;;14.30;99.90;;;;;;5073444;28;20027;-69
2022/10/26 05:20:11;;;;;;;8.63;3.47;;;14.30;99.90;;;;;;5073501;28;20393;-68
2022/10/26 05:22:37;;;;;;;6.05;3.28;;;14.30;99.90;;;;;;5074249;28;20030;-69
2022/10/26 05:25:03;;;;;;;11.30;2.93;;;14.40;99.90;;;;;;5072901;28;20115;-68
2022/10/26 05:27:28;;;;;;;11.38;3.67;;;14.40;99.90;;;;;;5073489;28;20036;-68
2022/10/26 05:29:54;;;;;;;8.13;3.10;;;14.20;99.90;;;;;;5072029;28;20028;-68
2022/10/26 05:32:20;;;;;;;7.10;3.17;;;14.20;99.90;;;;;;5073069;28;20079;-68
2022/10/26 05:34:45;;;;;;;12.88;3.88;;;14.20;99.90;;;;;;5073124;28;20028;-68
2022/10/26 05:37:12;;;;;;;9.25;4.18;;;14.20;99.90;;;;;;5073892;28;20044;-68
2022/10/26 05:39:37;;;;;;;8.30;4.10;;;14.30;99.90;;;;;;5073004;28;20104;-68
2022/10/26 05:42:03;;;;;;;7.10;3.93;;;14.20;99.90;;;;;;5073645;28;20048;-68
2022/10/26 05:44:28;;;;;;;8.10;3.50;;;14.10;99.90;;;;;;5073823;28;20750;-68
2022/10/26 05:46:54;;;;;;;8.30;3.30;;;14.10;99.90;;;;;;5073359;28;20059;-68
2022/10/26 05:49:20;;;;;;;7.37;3.57;;;14.00;99.90;;;;;;5073393;28;20505;-69
2022/10/26 05:51:45;;;;;;;10.50;4.23;;;14.10;99.90;;;;;;5074047;28;20393;-69
2022/10/26 05:54:11;;;;;;;10.00;4.53;;;14.00;99.90;;;;;;5072977;28;20089;-69
2022/10/26 05:56:38;;;;;;;9.93;3.95;;;14.10;99.90;;;;;;5074294;28;20492;-69
2022/10/26 05:59:13;;;;;;;10.13;4.00;;;14.10;99.90;;;;;;5073258;28;20025;-68
2022/10/26 06:01:45;;;;;;;7.35;3.90;;;14.10;99.90;;;;;;5074634;28;20020;-69
2022/10/26 06:04:21;;;;;;;11.85;3.45;;;14.10;99.90;;;;;;5072784;28;20055;-70
2022/10/26 06:06:52;;;;;;;17.40;3.90;;;14.20;99.90;;;;;;5073825;28;20035;-69
2022/10/26 06:09:18;;;;;;;7.03;3.92;;;14.30;99.90;;;;;;5073870;28;20027;-69
2022/10/26 06:11:44;;;;;;;11.05;3.92;;;14.30;99.90;;;;;;5073259;28;20029;-69
2022/10/26 06:14:10;;;;;;;17.50;5.00;;;14.30;99.90;;;;;;5073077;28;20029;-68
2022/10/26 06:16:48;;;;;;;14.52;4.90;;;14.10;99.90;;;;;;5072008;28;20048;-68
2022/10/26 06:20:08;;;;;;;12.90;5.38;;;14.10;99.90;;;;;;5073612;28;20378;-69
2022/10/26 06:23:00;;;;;;;11.93;5.40;;;14.40;99.90;;;;;;5011662;28;20098;-69
2022/10/26 06:26:02;;;;;;;13.73;6.00;;;14.40;99.90;;;;;;4994531;28;20030;-68
2022/10/26 06:28:59;;;;;;;13.95;6.50;;;14.20;99.90;;;;;;4994727;28;20037;-69
2022/10/26 06:31:25;;;;;;;17.30;6.75;;;14.30;99.90;;;;;;5011370;28;20104;-72
2022/10/26 06:33:58;;;;;;;15.23;6.10;;;14.20;99.90;;;;;;5010650;28;20037;-68
2022/10/26 06:36:26;;;;;;;20.63;6.38;;;14.10;99.90;;;;;;4994303;28;20394;-68
2022/10/26 06:39:02;;;;;;;15.98;7.53;;;14.20;99.90;;;;;;4997032;28;20458;-68
2022/10/26 06:41:31;;;;;;;14.80;7.60;;;14.30;99.90;;;;;;5014497;28;20053;-68
2022/10/26 06:43:57;;;;;;;14.20;7.93;;;14.30;99.90;;;;;;5017727;28;20038;-69
2022/10/26 06:46:42;;;;;;;20.77;7.50;;;14.50;99.90;;;;;;5017585;28;20041;-69
2022/10/26 06:49:27;;;;;;;16.80;7.65;;;14.60;99.90;;;;;;5034469;28;20517;-69
2022/10/26 06:51:59;;;;;;;18.23;7.68;;;14.50;99.90;;;;;;5034536;28;20033;-68
2022/10/26 06:54:48;;;;;;;13.90;7.15;;;14.50;99.90;;;;;;5034423;28;20033;-68
2022/10/26 06:57:15;;;;;;;16.25;6.85;;;14.40;99.90;;;;;;5073050;28;20093;-69
2022/10/26 07:00:05;;;;;;;18.70;7.13;;;14.30;99.90;;;;;;5076261;28;20433;-69
2022/10/26 07:02:31;;;;;;;18.40;6.90;;;14.30;99.90;;;;;;5076337;28;20044;-68
2022/10/26 07:04:56;;;;;;;19.43;6.87;;;14.20;99.90;;;;;;5076350;28;20114;-68
2022/10/26 07:07:25;;;;;;;14.37;5.93;;;14.30;99.90;;;;;;5075951;28;20025;-69
2022/10/26 07:09:50;;;;;;;14.43;5.63;;;14.30;99.90;;;;;;5076382;28;20388;-69
2022/10/26 07:12:16;;;;;;;10.20;5.63;;;14.40;99.90;;;;;;5082273;28;20481;-69
2022/10/26 07:14:42;;;;;;;10.85;5.13;;;14.40;99.90;;;;;;5096155;28;20047;-69
2022/10/26 07:17:08;;;;;;;17.80;7.00;;;14.40;99.90;;;;;;5095802;28;20036;-69
2022/10/26 07:19:34;;;;;;;;;;;14.40;99.90;;;;;;5096519;28;20277;-69
2022/10/26 07:22:00;;;;;;;11.43;4.53;;;14.60;99.90;;;;;;5095878;28;20400;-69
2022/10/26 07:24:26;;;;;;;13.55;6.07;;;14.70;99.90;;;;;;5095968;28;20107;-68
2022/10/26 07:26:55;;;;;;;11.43;4.45;;;14.80;99.90;;;;;;5095861;28;20036;-69
2022/10/26 07:29:22;;;;;;;9.63;4.05;;;14.90;99.90;;;;;;5095733;28;20484;-69
2022/10/26 07:31:47;;;;;;;;;;;14.80;99.90;;;;;;5096058;28;20059;-68
2022/10/26 07:34:13;;;;;;;8.32;3.90;;;14.80;99.90;;;;;;5094485;28;19912;-68
2022/10/26 07:36:38;;;;;;;9.90;4.83;;;14.90;99.90;;;;;;5095710;28;20103;-68
2022/10/26 07:39:05;;;;;;;8.87;4.23;;;15.10;99.90;;;;;;5095069;28;20032;-69
2022/10/26 07:41:30;;;;;;;9.40;4.57;;;15.10;99.90;;;;;;5095848;28;20644;-67
2022/10/26 07:43:56;;;;;;;10.35;4.25;;;15.10;99.90;;;;;;5095385;28;20162;-68
2022/10/26 07:46:22;;;;;;;11.52;3.72;;;15.20;99.90;;;;;;5094061;28;20020;-68
2022/10/26 07:48:47;;;;;;;7.93;3.80;;;15.30;99.90;;;;;;5094803;28;20036;-68
2022/10/26 07:51:13;;;;;;;7.97;4.07;;;15.20;99.90;;;;;;5093798;28;20127;-68
2022/10/26 07:53:39;;;;;;;7.03;3.05;;;15.20;99.90;;;;;;5095062;28;20040;-68
2022/10/26 07:56:05;;;;;;;9.73;3.30;;;15.50;99.90;;;;;;5083516;28;20033;-70
2022/10/26 07:58:31;;;;;;;;;;;15.60;99.90;;;;;;5077106;28;20500;-68
2022/10/26 08:00:56;;;;;;;9.18;3.15;;;15.70;99.90;;;;;;5073639;28;19904;-68
2022/10/26 08:03:22;;;;;;;7.93;3.50;;;15.90;99.90;;;;;;5074721;28;20024;-69
2022/10/26 08:05:50;;;;;;;9.80;4.32;;;16.10;99.90;;;;;;5074471;28;20033;-70
2022/10/26 08:08:19;;;;;;;8.95;3.35;;;16.10;99.90;;;;;;5074586;28;20021;-68
2022/10/26 08:10:46;;;;;;;8.55;3.67;;;16.20;99.90;;;;;;5074577;28;20029;-69
2022/10/26 08:13:12;;;;;;;7.85;3.33;;;16.10;99.90;;;;;;5074940;28;20028;-68
2022/10/26 08:15:38;;;;;;;8.80;3.13;;;16.10;99.90;;;;;;5075300;28;20177;-69
2022/10/26 08:18:04;;;;;;;8.15;3.42;;;16.30;99.90;;;;;;5073916;28;20150;-68
2022/10/26 08:20:30;;;;;;;10.02;3.22;;;16.40;99.90;;;;;;5074201;28;20067;-67
2022/10/26 08:22:56;;;;;;;12.27;4.70;;;16.50;99.90;;;;;;5074130;28;20021;-68
2022/10/26 08:25:22;;;;;;;8.95;3.63;;;16.60;99.90;;;;;;5074293;28;20033;-68
2022/10/26 08:27:48;;;;;;;9.60;3.00;;;16.80;99.90;;;;;;5072954;28;20500;-68
2022/10/26 08:30:13;;;;;;;9.10;3.38;;;16.80;99.90;;;;;;5074800;28;20020;-68
2022/10/26 08:32:41;;;;;;;8.02;3.33;;;16.90;99.90;;;;;;5074050;28;20028;-69
2022/10/26 08:35:07;;;;;;;8.90;3.78;;;17.00;99.90;;;;;;5072674;28;20106;-68
2022/10/26 08:37:32;;;;;;;15.07;3.70;;;17.20;99.90;;;;;;5072450;28;20036;-68
2022/10/26 08:39:58;;;;;;;14.70;3.95;;;17.30;99.90;;;;;;5073709;28;20033;-68
2022/10/26 08:42:30;;;;;;;12.33;4.13;;;17.40;99.90;;;;;;5072492;28;20115;-68
2022/10/26 08:45:01;;;;;;;6.43;3.50;;;17.40;99.90;;;;;;5074205;28;20043;-68
2022/10/26 08:47:34;;;;;;;11.23;3.83;;;17.50;99.90;;;;;;5073810;28;20048;-68
2022/10/26 08:50:13;;;;;;;9.75;3.30;;;17.50;99.90;;;;;;5073647;28;20028;-68
2022/10/26 08:52:54;;;;;;;9.25;3.67;;;17.50;99.90;;;;;;5071714;28;20028;-68
2022/10/26 08:55:24;;;;;;;8.25;3.45;;;17.50;99.90;;;;;;5073464;28;20021;-69
2022/10/26 08:57:51;;;;;;;7.97;3.40;;;17.70;99.90;;;;;;5073919;28;20057;-69
2022/10/26 09:00:22;;;;;;;11.05;3.55;;;17.70;99.90;;;;;;5073630;28;20060;-68
2022/10/26 09:02:52;;;;;;;9.73;3.60;;;17.60;99.90;;;;;;5073584;28;20039;-68
2022/10/26 09:05:37;;;;;;;9.13;3.22;;;17.70;99.90;;;;;;5074157;28;20186;-67
2022/10/26 09:08:14;;;;;;;10.20;4.50;;;17.70;99.90;;;;;;5072979;28;20032;-68
2022/10/26 09:11:04;;;;;;;5.88;3.00;;;17.70;99.90;;;;;;5073485;28;20030;-69
2022/10/26 09:13:37;;;;;;;11.30;3.55;;;17.80;99.90;;;;;;5073800;28;20067;-68
2022/10/26 09:16:31;;;;;;;9.25;3.05;;;18.50;99.90;;;;;;5073306;28;20020;-68
2022/10/26 09:19:30;;;;;;;9.18;3.25;;;19.10;99.90;;;;;;5085383;28;20024;-67
2022/10/26 09:22:06;;;;;;;7.13;2.85;;;20.40;99.90;;;;;;5093810;28;20103;-68
2022/10/26 09:24:38;;;;;;;9.57;2.75;;;22.20;99.90;;;;;;5093532;28;20024;-68
2022/10/26 09:27:27;;;;;;;13.63;2.90;;;23.10;99.90;;;;;;5093657;28;20495;-69
2022/10/26 09:29:55;;;;;;;8.57;2.38;;;23.00;99.90;;;;;;5093187;28;20522;-69
2022/10/26 09:32:43;;;;;;;7.32;2.60;;;22.60;99.90;;;;;;5093191;28;20497;-68
2022/10/26 09:35:20;;;;;;;7.88;2.72;;;21.90;99.90;;;;;;5091650;28;20032;-68
2022/10/26 09:38:23;;;;;;;9.02;2.72;;;21.30;99.90;;;;;;5093229;28;20016;-67
2022/10/26 09:41:05;;;;;;;7.55;2.70;;;20.70;99.90;;;;;;5093107;28;20431;-68
2022/10/26 09:43:54;;;;;;;9.10;2.13;;;20.50;99.90;;;;;;5093605;28;20465;-68
2022/10/26 09:46:26;;;;;;;7.43;2.20;;;20.60;99.90;;;;;;5093801;28;20031;-68
2022/10/26 09:49:00;;;;;;;5.43;2.28;;;20.90;99.90;;;;;;5092060;28;20085;-68
2022/10/26 09:51:26;;;;;;;7.85;2.60;;;21.40;99.90;;;;;;5093208;28;20479;-68
2022/10/26 09:53:53;;;;;;;8.48;2.97;;;22.10;99.90;;;;;;5092739;28;20035;-70
2022/10/26 09:56:19;;;;;;;8.95;3.05;;;22.20;99.90;;;;;;5091588;28;20024;-69
2022/10/26 09:58:58;;;;;;;10.15;3.15;;;22.40;99.90;;;;;;5092616;28;20016;-67
2022/10/26 10:01:31;;;;;;;9.55;2.83;;;23.30;99.90;;;;;;5093041;28;20028;-68
2022/10/26 10:04:12;;;;;;;9.48;3.53;;;24.30;99.90;;;;;;5092737;28;20584;-69
2022/10/26 10:06:39;;;;;;;8.52;2.10;;;25.10;99.90;;;;;;5092839;28;20423;-68
2022/10/26 10:09:09;;;;;;;12.00;2.80;;;24.80;99.90;;;;;;5092462;28;20024;-68
2022/10/26 10:11:55;;;;;;;10.02;2.28;;;24.10;99.90;;;;;;5093988;28;20017;-69
2022/10/26 10:14:25;;;;;;;8.55;2.33;;;23.00;99.90;;;;;;5095937;28;20020;-69
2022/10/26 10:16:57;;;;;;;7.95;2.28;;;22.50;99.90;;;;;;5095468;28;20484;-69
2022/10/26 10:19:26;;;;;;;6.38;2.40;;;22.30;99.90;;;;;;5096867;28;20106;-69
2022/10/26 10:21:55;;;;;;;6.35;2.47;;;22.30;99.90;;;;;;5097251;28;20024;-69
2022/10/26 10:24:29;;;;;;;7.13;2.47;;;24.00;99.90;;;;;;5096642;28;20377;-69
2022/10/26 10:27:14;;;;;;;10.60;2.50;;;25.60;99.90;;;;;;5096587;28;20495;-68
2022/10/26 10:29:49;;;;;;;9.85;3.35;;;25.10;99.90;;;;;;5096659;28;20016;-68
2022/10/26 10:32:19;;;;;;;13.98;2.90;;;23.90;99.90;;;;;;5095149;28;20024;-67
2022/10/26 10:34:46;;;;;;;7.05;2.70;;;22.80;99.90;;;;;;5096297;28;20024;-67
2022/10/26 10:37:21;;;;;;;9.60;2.67;;;22.10;99.90;;;;;;5095309;28;20066;-68
2022/10/26 10:39:47;;;;;;;8.55;2.67;;;21.40;99.90;;;;;;5095771;28;20070;-68
2022/10/26 10:42:19;;;;;;;9.02;2.78;;;21.00;99.90;;;;;;5097657;28;20028;-68
2022/10/26 10:44:46;;;;;;;9.63;2.28;;;20.80;99.90;;;;;;5097267;28;20408;-68
2022/10/26 10:47:21;;;;;;;8.02;2.83;;;20.70;99.90;;;;;;5096526;28;20024;-69
2022/10/26 10:50:02;;;;;;;9.60;2.75;;;20.60;99.90;;;;;;5096959;28;20119;-67
2022/10/26 10:52:30;;;;;;;14.43;2.78;;;20.70;99.90;;;;;;5096632;28;20451;-69
2022/10/26 10:55:18;;;;;;;8.95;3.55;;;20.90;99.90;;;;;;5096778;28;20397;-68
2022/10/26 10:57:50;;;;;;;9.23;2.30;;;21.00;99.90;;;;;;5096495;28;20055;-68
2022/10/26 11:00:23;;;;;;;9.30;2.22;;;21.20;99.90;;;;;;5096134;28;20103;-68
2022/10/26 11:03:19;;;;;;;6.80;2.45;;;21.40;99.90;;;;;;5094771;28;20111;-70
2022/10/26 11:05:57;;;;;;;7.50;2.38;;;21.40;99.90;;;;;;5096644;28;20370;-69
2022/10/26 11:08:39;;;;;;;4.68;2.05;;;21.50;99.90;;;;;;5095776;28;20099;-68
2022/10/26 11:11:10;;;;;;;10.45;2.95;;;21.40;99.90;;;;;;5094537;28;20032;-69
2022/10/26 11:13:38;;;;;;;8.52;2.90;;;21.50;99.90;;;;;;5096310;28;20077;-70
2022/10/26 11:16:13;;;;;;;7.35;2.38;;;21.50;99.90;;;;;;5096577;28;20020;-70
2022/10/26 11:18:48;;;;;;;9.50;3.15;;;21.50;99.90;;;;;;5095439;28;20059;-69
2022/10/26 11:21:32;;;;;;;9.77;2.90;;;21.70;99.90;;;;;;5095135;28;20454;-69
2022/10/26 11:24:11;;;;;;;14.48;3.13;;;21.80;99.90;;;;;;5095147;28;20438;-69
2022/10/26 11:26:51;;;;;;;12.73;3.10;;;21.80;99.90;;;;;;5094705;28;20031;-69
2022/10/26 11:29:39;;;;;;;16.90;5.78;;;21.80;99.90;;;;;;5096429;28;20103;-69
2022/10/26 11:32:22;;;;;;;10.95;3.55;;;21.80;99.90;;;;;;5094650;28;20024;-69
2022/10/26 11:34:54;;;;;;;7.18;3.60;;;21.80;99.90;;;;;;5095810;28;20036;-70
2022/10/26 11:37:31;;;;;;;10.30;2.63;;;21.90;99.90;;;;;;5096577;28;20020;-70
2022/10/26 11:40:00;;;;;;;;;;;21.80;99.90;;;;;;5097258;28;20021;-70
2022/10/26 11:42:45;;;;;;;7.13;2.65;;;21.70;99.90;;;;;;5095256;28;20037;-69
2022/10/26 11:45:27;;;;;;;16.38;3.95;;;21.80;99.90;;;;;;5096156;28;20031;-69
2022/10/26 11:48:00;;;;;;;8.60;3.38;;;21.90;99.90;;;;;;5096432;28;20504;-69
2022/10/26 11:50:33;;;;;;;6.50;2.65;;;22.00;99.90;;;;;;5094232;28;20024;-68
2022/10/26 11:53:01;;;;;;;12.85;2.28;;;22.10;99.90;;;;;;5095825;28;20024;-69
2022/10/26 11:55:28;;;;;;;9.70;2.55;;;22.20;99.90;;;;;;5097195;28;20047;-70
2022/10/26 11:57:54;;;;;;;11.45;2.20;;;22.20;99.90;;;;;;5095530;28;20046;-70
2022/10/26 12:00:21;;;;;;;10.25;3.05;;;22.20;99.90;;;;;;5095858;28;20073;-70
2022/10/26 12:03:08;;;;;;;7.63;2.42;;;22.20;99.90;;;;;;5094021;28;20028;-70
2022/10/26 12:05:37;;;;;;;5.85;2.22;;;22.30;99.90;;;;;;5095232;28;20415;-70
2022/10/26 12:08:14;;;;;;;5.97;2.17;;;22.20;99.90;;;;;;5094661;28;20026;-70
2022/10/26 12:10:47;;;;;;;7.50;2.03;;;22.00;99.90;;;;;;5095068;28;20120;-69
2022/10/26 12:13:37;;;;;;;10.13;2.63;;;21.90;99.90;;;;;;5094697;28;20077;-69
2022/10/26 12:16:08;;;;;;;9.93;2.65;;;21.80;99.90;;;;;;5093232;28;20028;-69
2022/10/26 12:18:34;;;;;;;9.00;2.15;;;21.60;99.90;;;;;;5093386;28;20337;-69
2022/10/26 12:21:01;;;;;;;8.82;1.60;;;21.60;99.90;;;;;;5095628;28;20070;-70
2022/10/26 12:24:19;;;;;;;6.15;2.67;;;21.60;99.90;;;;;;5094160;28;20030;-69
2022/10/26 12:26:55;;;;;;;10.77;2.08;;;21.60;99.90;;;;;;5048252;28;20029;-70
2022/10/26 12:29:37;;;;;;;8.65;1.77;;;21.60;99.90;;;;;;5035157;28;20021;-69
2022/10/26 12:32:32;;;;;;;12.23;2.47;;;21.40;99.90;;;;;;5052160;28;20473;-69
2022/10/26 12:34:59;;;;;;;8.35;2.25;;;21.30;99.90;;;;;;5042044;28;20427;-69
2022/10/26 12:37:31;;;;;;;7.95;2.60;;;21.30;99.90;;;;;;5052111;28;20116;-69
2022/10/26 12:40:33;;;;;;;6.45;2.13;;;21.40;99.90;;;;;;5034833;28;20017;-69
2022/10/26 12:43:17;;;;;;;6.07;2.08;;;21.50;99.90;;;;;;5051996;28;20049;-70
2022/10/26 12:46:06;;;;;;;7.68;2.97;;;21.50;99.90;;;;;;5051672;28;20044;-68
2022/10/26 12:48:48;;;;;;;8.77;2.53;;;21.50;99.90;;;;;;5051602;28;20405;-69
2022/10/26 12:51:37;;;;;;;8.90;2.25;;;21.50;99.90;;;;;;5051691;28;20032;-71
2022/10/26 12:54:27;;;;;;;7.57;2.25;;;21.50;99.90;;;;;;5041236;28;20541;-69
2022/10/26 12:57:19;;;;;;;8.93;3.00;;;21.60;99.90;;;;;;5051313;28;20037;-70
2022/10/26 12:59:51;;;;;;;4.88;2.38;;;21.60;99.90;;;;;;5036184;28;20025;-69
2022/10/26 13:02:35;;;;;;;6.65;2.00;;;21.40;99.90;;;;;;5069642;28;20028;-69
2022/10/26 13:05:25;;;;;;;7.05;2.22;;;21.50;99.90;;;;;;5093166;28;20028;-69
2022/10/26 13:07:51;;;;;;;7.57;1.50;;;21.50;99.90;;;;;;5093810;28;20028;-69
2022/10/26 13:10:23;;;;;;;6.22;2.00;;;21.50;99.90;;;;;;5092080;28;20020;-69